Time;durP1;ratioP1;P1;durP2;ratioP2;P2;SDS_P1;SDS_P2;PMS_P1;PMS_P2;Temp;Humidity;BMP_temperature;BMP_pressure;BME280_temperature;BME280_humidity;BME280_pressure;Samples;Min_cycle;Max_cycle;Signal;HPM_P1;HPM_P2
2023/10/29 00:02:24;;;;;;;10.88;2.20;;;8.50;99.90;;;;;;5095545;28;20007;-78
2023/10/29 00:04:50;;;;;;;;;;;8.50;99.90;;;;;;5095138;28;20074;-78
2023/10/29 00:07:16;;;;;;;7.70;3.65;;;8.40;99.90;;;;;;5094538;28;20371;-78
2023/10/29 00:09:41;;;;;;;;;;;8.30;99.90;;;;;;5094071;28;20032;-78
2023/10/29 00:12:07;;;;;;;11.98;4.32;;;8.30;99.90;;;;;;5092861;28;19928;-77
2023/10/29 00:14:33;;;;;;;;;;;8.40;99.90;;;;;;5092559;28;20081;-77
2023/10/29 00:16:59;;;;;;;10.85;3.58;;;8.40;99.90;;;;;;5093326;28;19911;-78
2023/10/29 00:19:24;;;;;;;;;;;8.50;99.90;;;;;;5092894;28;20122;-77
2023/10/29 00:21:50;;;;;;;8.68;3.70;;;8.50;99.90;;;;;;5094664;28;19908;-78
2023/10/29 00:24:15;;;;;;;;;;;8.50;99.90;;;;;;5094549;28;20480;-78
2023/10/29 00:26:41;;;;;;;6.20;1.60;;;8.70;99.90;;;;;;5094334;28;19987;-78
2023/10/29 00:29:07;;;;;;;;;;;8.70;99.90;;;;;;5093537;28;20034;-78
2023/10/29 00:31:33;;;;;;;2.03;1.00;;;8.80;99.90;;;;;;5094487;28;19908;-78
2023/10/29 00:33:59;;;;;;;;;;;8.80;99.90;;;;;;5094434;28;20097;-78
2023/10/29 00:36:25;;;;;;;12.18;3.25;;;8.70;99.90;;;;;;5092368;28;20388;-78
2023/10/29 00:38:50;;;;;;;;;;;8.80;99.90;;;;;;5092591;28;20035;-78
2023/10/29 00:41:16;;;;;;;6.47;2.08;;;8.80;99.90;;;;;;5092313;28;19915;-78
2023/10/29 00:43:42;;;;;;;;;;;8.80;99.90;;;;;;5095767;28;20083;-78
2023/10/29 00:46:10;;;;;;;4.60;1.83;;;8.90;99.90;;;;;;5095588;28;19912;-77
2023/10/29 00:48:37;;;;;;;8.25;1.75;;;9.00;99.90;;;;;;5095870;28;20030;-79
2023/10/29 00:51:03;;;;;;;9.07;2.58;;;9.00;99.90;;;;;;5096139;28;20024;-79
2023/10/29 00:53:29;;;;;;;4.03;1.02;;;9.10;99.90;;;;;;5095740;28;20145;-79
2023/10/29 00:55:57;;;;;;;2.42;1.25;;;9.20;99.90;;;;;;5096015;28;20060;-77
2023/10/29 00:58:24;;;;;;;3.45;1.17;;;9.20;99.90;;;;;;5095234;28;20080;-78
2023/10/29 01:00:50;;;;;;;1.88;0.80;;;9.10;99.90;;;;;;5095709;28;20081;-78
2023/10/29 01:03:18;;;;;;;5.47;1.42;;;9.10;99.90;;;;;;5095373;28;20026;-78
2023/10/29 01:05:47;;;;;;;4.43;1.45;;;9.10;99.90;;;;;;5094715;28;20073;-79
2023/10/29 01:08:13;;;;;;;3.60;1.33;;;9.10;99.90;;;;;;5093618;28;20132;-77
2023/10/29 01:10:38;;;;;;;;;;;9.20;99.90;;;;;;5092897;28;20504;-77
2023/10/29 01:13:04;;;;;;;6.15;2.90;;;9.20;99.90;;;;;;5091121;28;19908;-78
2023/10/29 01:15:30;;;;;;;;;;;9.10;99.90;;;;;;5091087;28;20032;-77
2023/10/29 01:17:56;;;;;;;7.72;3.78;;;9.10;99.90;;;;;;5090958;28;19908;-77
2023/10/29 01:20:21;;;;;;;;;;;9.10;99.90;;;;;;5091121;28;20020;-78
2023/10/29 01:22:47;;;;;;;3.88;2.10;;;9.20;99.90;;;;;;5090217;28;19912;-77
2023/10/29 01:25:13;;;;;;;10.93;1.95;;;9.30;99.90;;;;;;5091745;28;20186;-77
2023/10/29 01:27:39;;;;;;;;;;;9.20;99.90;;;;;;5091165;28;20089;-77
2023/10/29 01:30:06;;;;;;;3.72;1.60;;;9.20;99.90;;;;;;5090406;28;19908;-77
2023/10/29 01:32:32;;;;;;;5.38;1.60;;;9.30;99.90;;;;;;5091677;28;20378;-77
2023/10/29 01:34:58;;;;;;;;;;;9.30;99.90;;;;;;5091038;28;20426;-76
2023/10/29 01:37:24;;;;;;;4.03;2.00;;;9.40;99.90;;;;;;5090335;28;19912;-77
2023/10/29 01:39:49;;;;;;;;;;;9.60;99.90;;;;;;5092977;28;20115;-77
2023/10/29 01:42:15;;;;;;;3.50;1.52;;;9.40;99.90;;;;;;5091606;28;19991;-77
2023/10/29 01:44:41;;;;;;;3.00;1.33;;;9.40;99.90;;;;;;5093845;28;20098;-77
2023/10/29 01:47:06;;;;;;;;;;;9.40;99.90;;;;;;5091138;28;20023;-77
2023/10/29 01:49:33;;;;;;;5.82;1.88;;;9.30;99.90;;;;;;5090506;28;20435;-77
2023/10/29 01:51:59;;;;;;;2.70;1.20;;;9.40;99.90;;;;;;5092695;28;20035;-78
2023/10/29 01:54:24;;;;;;;;;;;9.40;99.90;;;;;;5092902;28;20024;-78
2023/10/29 01:56:50;;;;;;;4.57;1.40;;;9.40;99.90;;;;;;5093241;28;19953;-79
2023/10/29 01:59:16;;;;;;;7.32;4.13;;;9.40;99.90;;;;;;5092444;28;20399;-79
2023/10/29 02:01:42;;;;;;;;;;;9.30;99.90;;;;;;5092454;28;20524;-77
2023/10/29 02:04:09;;;;;;;3.60;1.63;;;9.30;99.90;;;;;;5089661;28;19911;-78
2023/10/29 02:06:38;;;;;;;3.65;1.38;;;9.20;99.90;;;;;;5089335;28;20028;-77
2023/10/29 02:09:12;;;;;;;3.22;1.10;;;9.30;99.90;;;;;;5089494;28;20021;-77
2023/10/29 02:11:39;;;;;;;3.22;0.75;;;9.40;99.90;;;;;;5092797;28;20582;-77
2023/10/29 02:14:06;;;;;;;3.67;1.90;;;9.40;99.90;;;;;;5094204;28;20480;-77
2023/10/29 02:16:31;;;;;;;4.22;1.92;;;9.30;99.90;;;;;;5096401;28;20040;-78
2023/10/29 02:18:57;;;;;;;;;;;9.20;99.90;;;;;;5098563;28;20131;-79
2023/10/29 02:21:24;;;;;;;5.63;1.50;;;9.20;99.90;;;;;;5096744;28;21665;-78
2023/10/29 02:23:50;;;;;;;4.72;1.83;;;9.10;99.90;;;;;;5095598;28;20175;-78
2023/10/29 02:26:16;;;;;;;7.07;2.10;;;9.10;99.90;;;;;;5095736;28;20484;-78
2023/10/29 02:28:42;;;;;;;;;;;9.10;99.90;;;;;;5095601;28;20039;-79
2023/10/29 02:31:08;;;;;;;7.50;1.47;;;9.10;99.90;;;;;;5096569;28;20017;-78
2023/10/29 02:33:33;;;;;;;;;;;9.10;99.90;;;;;;5095572;28;20047;-78
2023/10/29 02:35:59;;;;;;;3.22;1.40;;;9.20;99.90;;;;;;5095512;28;19915;-78
2023/10/29 02:38:25;;;;;;;;;;;9.20;99.90;;;;;;5095725;28;20047;-77
2023/10/29 02:40:50;;;;;;;5.10;1.50;;;9.30;99.90;;;;;;5094251;28;19912;-78
2023/10/29 02:43:16;;;;;;;;;;;9.40;99.90;;;;;;5097810;28;20036;-78
2023/10/29 02:45:42;;;;;;;4.28;1.30;;;9.50;99.90;;;;;;5095795;28;19907;-78
2023/10/29 02:48:07;;;;;;;;;;;9.50;99.90;;;;;;5098107;28;20028;-79
2023/10/29 02:50:35;;;;;;;5.03;0.70;;;9.40;99.90;;;;;;5097197;28;20440;-78
2023/10/29 02:53:01;;;;;;;1.80;0.82;;;9.40;99.90;;;;;;5097150;28;20058;-78
2023/10/29 02:55:26;;;;;;;;;;;9.30;99.90;;;;;;5097853;28;20048;-78
2023/10/29 02:57:52;;;;;;;2.55;0.57;;;9.30;99.90;;;;;;5096835;28;20015;-79
2023/10/29 03:00:18;;;;;;;;;;;9.30;99.90;;;;;;5097169;28;20043;-78
2023/10/29 03:02:44;;;;;;;2.25;0.88;;;9.20;99.90;;;;;;5095547;28;19915;-78
2023/10/29 03:05:11;;;;;;;2.38;0.70;;;9.20;99.90;;;;;;5094873;28;20484;-77
2023/10/29 03:07:37;;;;;;;2.83;0.90;;;9.20;99.90;;;;;;5095463;28;20034;-78
2023/10/29 03:10:04;;;;;;;;;;;9.10;99.90;;;;;;5096143;28;20017;-79
2023/10/29 03:12:30;;;;;;;1.08;0.60;;;9.10;99.90;;;;;;5095268;28;19916;-79
2023/10/29 03:14:56;;;;;;;1.58;0.70;;;9.00;99.90;;;;;;5095783;28;20025;-79
2023/10/29 03:17:21;;;;;;;;;;;9.00;99.90;;;;;;5096054;28;20518;-77
2023/10/29 03:19:47;;;;;;;6.22;1.33;;;9.00;99.90;;;;;;5096546;28;19904;-78
2023/10/29 03:22:13;;;;;;;6.25;1.50;;;9.00;99.90;;;;;;5094274;28;20024;-78
2023/10/29 03:24:39;;;;;;;;;;;8.90;99.90;;;;;;5094554;28;20481;-77
2023/10/29 03:27:04;;;;;;;2.47;1.00;;;8.90;99.90;;;;;;5095196;28;19904;-77
2023/10/29 03:29:30;;;;;;;;;;;8.90;99.90;;;;;;5094976;28;20177;-78
2023/10/29 03:31:56;;;;;;;6.63;1.85;;;8.90;99.90;;;;;;5094311;28;19904;-78
2023/10/29 03:34:21;;;;;;;;;;;8.90;99.90;;;;;;5095901;28;20028;-78
2023/10/29 03:36:47;;;;;;;6.15;1.52;;;9.00;99.90;;;;;;5095693;28;19916;-78
2023/10/29 03:39:12;;;;;;;;;;;9.10;99.90;;;;;;5094730;28;20027;-77
2023/10/29 03:41:38;;;;;;;5.53;1.13;;;9.20;99.90;;;;;;5095896;28;19904;-76
2023/10/29 03:44:03;;;;;;;;;;;9.20;99.90;;;;;;5095518;28;20074;-77
2023/10/29 03:46:29;;;;;;;3.67;1.20;;;9.20;99.90;;;;;;5095673;28;19903;-77
2023/10/29 03:48:55;;;;;;;;;;;9.20;99.90;;;;;;5096603;28;20027;-77
2023/10/29 03:51:20;;;;;;;2.67;0.80;;;9.30;99.90;;;;;;5094186;28;19904;-78
2023/10/29 03:53:46;;;;;;;;;;;9.30;99.90;;;;;;5098797;28;20091;-78
2023/10/29 03:56:12;;;;;;;4.45;1.38;;;9.30;99.90;;;;;;5096259;28;20330;-78
2023/10/29 03:58:38;;;;;;;;;;;9.30;99.90;;;;;;5097672;28;20073;-77
2023/10/29 04:01:04;;;;;;;6.43;1.80;;;9.30;99.90;;;;;;5096815;28;19904;-78
2023/10/29 04:03:29;;;;;;;2.30;0.80;;;9.30;99.90;;;;;;5095733;28;20033;-77
2023/10/29 04:05:55;;;;;;;;;;;9.30;99.90;;;;;;5092791;28;20031;-79
2023/10/29 04:08:21;;;;;;;2.58;0.85;;;9.40;99.90;;;;;;5091594;28;19927;-78
2023/10/29 04:10:46;;;;;;;;;;;9.30;99.90;;;;;;5092550;28;20047;-77
2023/10/29 04:13:12;;;;;;;4.45;0.73;;;9.30;99.90;;;;;;5091984;28;19904;-77
2023/10/29 04:15:38;;;;;;;;;;;9.40;99.90;;;;;;5093711;28;20111;-78
2023/10/29 04:18:04;;;;;;;3.80;0.90;;;9.30;99.90;;;;;;5092598;28;19915;-78
2023/10/29 04:20:30;;;;;;;4.95;0.70;;;9.30;99.90;;;;;;5092452;28;20070;-78
2023/10/29 04:22:55;;;;;;;;;;;9.30;99.90;;;;;;5094107;28;20568;-78
2023/10/29 04:25:21;;;;;;;2.78;0.90;;;9.20;99.90;;;;;;5093722;28;19957;-78
2023/10/29 04:27:46;;;;;;;;;;;9.20;99.90;;;;;;5093956;28;20032;-77
2023/10/29 04:30:12;;;;;;;4.40;1.30;;;9.40;99.90;;;;;;5092421;28;19908;-78
2023/10/29 04:32:38;;;;;;;4.75;1.73;;;9.40;99.90;;;;;;5091618;28;20028;-78
2023/10/29 04:35:04;;;;;;;;;;;9.30;99.90;;;;;;5093204;28;20701;-78
2023/10/29 04:37:29;;;;;;;4.80;1.55;;;9.40;99.90;;;;;;5091697;28;19908;-78
2023/10/29 04:39:55;;;;;;;;;;;9.50;99.90;;;;;;5092984;28;20028;-77
2023/10/29 04:42:20;;;;;;;8.15;1.70;;;9.50;99.90;;;;;;5093662;28;20303;-78
2023/10/29 04:44:46;;;;;;;;;;;9.50;99.90;;;;;;5092598;28;20473;-77
2023/10/29 04:47:12;;;;;;;2.67;1.48;;;9.50;99.90;;;;;;5093312;28;20365;-78
2023/10/29 04:49:37;;;;;;;;;;;9.40;99.90;;;;;;5087470;28;20043;-77
2023/10/29 04:52:03;;;;;;;4.13;2.10;;;9.40;99.90;;;;;;5079334;28;20266;-78
2023/10/29 04:54:28;;;;;;;;;;;9.30;99.90;;;;;;5078234;28;20024;-77
2023/10/29 04:56:54;;;;;;;6.22;1.48;;;9.30;99.90;;;;;;5082380;28;19935;-78
2023/10/29 04:59:20;;;;;;;;;;;9.20;99.90;;;;;;5093686;28;20032;-76
2023/10/29 05:01:45;;;;;;;3.53;1.73;;;9.10;99.90;;;;;;5092897;28;19990;-78
2023/10/29 05:04:11;;;;;;;;;;;9.10;99.90;;;;;;5092390;28;20023;-79
2023/10/29 05:06:36;;;;;;;3.58;2.05;;;9.10;99.90;;;;;;5092628;28;19904;-77
2023/10/29 05:09:02;;;;;;;;;;;9.10;99.90;;;;;;5092475;28;20036;-78
2023/10/29 05:11:28;;;;;;;5.43;1.98;;;9.20;99.90;;;;;;5091543;28;19967;-78
2023/10/29 05:13:53;;;;;;;3.47;2.17;;;9.40;99.90;;;;;;5093619;28;20104;-78
2023/10/29 05:16:20;;;;;;;;;;;9.50;99.90;;;;;;5093392;28;20560;-77
2023/10/29 05:18:46;;;;;;;6.90;2.38;;;9.50;99.90;;;;;;5094437;28;19912;-78
2023/10/29 05:21:11;;;;;;;;;;;9.30;99.90;;;;;;5095130;28;20076;-79
2023/10/29 05:23:38;;;;;;;5.45;2.80;;;9.40;99.90;;;;;;5092000;28;19960;-79
2023/10/29 05:26:04;;;;;;;3.92;1.90;;;9.30;99.90;;;;;;5093247;28;20035;-78
2023/10/29 05:28:29;;;;;;;;;;;9.30;99.90;;;;;;5093566;28;20024;-78
2023/10/29 05:30:55;;;;;;;5.55;3.00;;;9.20;99.90;;;;;;5091552;28;19927;-79
2023/10/29 05:33:21;;;;;;;;;;;9.10;99.90;;;;;;5091990;28;20400;-78
2023/10/29 05:35:46;;;;;;;7.68;2.42;;;9.10;99.90;;;;;;5091654;28;19919;-77
2023/10/29 05:38:12;;;;;;;;;;;9.00;99.90;;;;;;5091296;28;20103;-77
2023/10/29 05:40:38;;;;;;;5.18;3.13;;;9.00;99.90;;;;;;5091910;28;19907;-77
2023/10/29 05:43:03;;;;;;;;;;;9.00;99.90;;;;;;5091888;28;20097;-77
2023/10/29 05:45:29;;;;;;;6.10;3.35;;;8.90;99.90;;;;;;5089183;28;20368;-77
2023/10/29 05:47:56;;;;;;;;;;;9.00;99.90;;;;;;5091899;28;20446;-77
2023/10/29 05:50:22;;;;;;;7.10;2.90;;;9.00;99.90;;;;;;5090792;28;19915;-77
2023/10/29 05:52:49;;;;;;;6.38;3.72;;;9.10;99.90;;;;;;5091398;28;20059;-77
2023/10/29 05:55:14;;;;;;;6.55;3.30;;;9.00;99.90;;;;;;5091770;28;20039;-77
2023/10/29 05:57:40;;;;;;;;;;;9.10;99.90;;;;;;5091055;28;20032;-77
2023/10/29 06:00:07;;;;;;;12.55;3.70;;;9.10;99.90;;;;;;5091533;28;19915;-77
2023/10/29 06:02:33;;;;;;;7.97;5.22;;;9.10;99.90;;;;;;5090573;28;20109;-78
2023/10/29 06:04:58;;;;;;;;;;;9.20;99.90;;;;;;5092152;28;20107;-78
2023/10/29 06:07:24;;;;;;;12.40;7.38;;;9.20;99.90;;;;;;5090291;28;19911;-77
2023/10/29 06:09:50;;;;;;;;;;;9.20;99.90;;;;;;5091820;28;20031;-78
2023/10/29 06:12:15;;;;;;;12.52;7.47;;;9.20;99.90;;;;;;5091686;28;20411;-77
2023/10/29 06:14:45;;;;;;;;;;;9.30;99.90;;;;;;5090454;28;20024;-78
2023/10/29 06:17:11;;;;;;;18.88;11.55;;;9.40;99.90;;;;;;5091840;28;19912;-77
2023/10/29 06:19:36;;;;;;;;;;;9.40;99.90;;;;;;5092615;28;20492;-78
2023/10/29 06:22:02;;;;;;;12.95;5.30;;;9.50;99.90;;;;;;5091785;28;19911;-77
2023/10/29 06:24:27;;;;;;;;;;;9.50;99.90;;;;;;5089525;28;20028;-77
2023/10/29 06:26:54;;;;;;;8.45;4.60;;;9.60;99.90;;;;;;5091463;28;19911;-79
2023/10/29 06:29:20;;;;;;;13.52;5.20;;;9.80;99.90;;;;;;5090341;28;20054;-77
2023/10/29 06:31:45;;;;;;;;;;;10.00;99.90;;;;;;5089609;28;20416;-78
2023/10/29 06:34:11;;;;;;;13.02;6.93;;;10.20;99.90;;;;;;5089566;28;19915;-78
2023/10/29 06:36:38;;;;;;;;;;;10.40;99.90;;;;;;5089985;28;20047;-78
2023/10/29 06:39:04;;;;;;;11.02;5.78;;;10.60;99.90;;;;;;5089238;28;19904;-78
2023/10/29 06:41:29;;;;;;;;;;;10.70;99.90;;;;;;5090916;28;20498;-77
2023/10/29 06:43:55;;;;;;;15.80;6.72;;;10.80;99.90;;;;;;5088536;28;19916;-77
2023/10/29 06:46:20;;;;;;;;;;;11.00;99.90;;;;;;5089089;28;20024;-77
2023/10/29 06:48:46;;;;;;;13.02;6.18;;;11.20;99.90;;;;;;5088243;28;19918;-77
2023/10/29 06:51:13;;;;;;;;;;;11.50;99.90;;;;;;5088713;28;20024;-78
2023/10/29 06:53:39;;;;;;;;;;;11.80;99.90;;;;;;5089243;28;19912;-77
2023/10/29 06:56:06;;;;;;;10.82;6.25;;;12.00;99.90;;;;;;5087966;28;19939;-76
2023/10/29 06:58:32;;;;;;;7.07;4.50;;;12.20;99.90;;;;;;5093015;28;20016;-78
2023/10/29 07:01:08;;;;;;;8.43;5.07;;;12.40;99.90;;;;;;5091288;28;20039;-77
2023/10/29 07:03:34;;;;;;;10.82;3.90;;;12.50;99.90;;;;;;5092046;28;20523;-78
2023/10/29 07:06:08;;;;;;;6.20;4.32;;;12.60;99.90;;;;;;5090966;28;20352;-79
2023/10/29 07:08:35;;;;;;;7.85;4.90;;;12.60;99.90;;;;;;5070288;28;20044;-78
2023/10/29 07:11:02;;;;;;;6.95;4.93;;;12.60;99.90;;;;;;5057808;28;20053;-77
2023/10/29 07:13:27;;;;;;;7.65;4.30;;;12.60;99.90;;;;;;5071135;28;20151;-78
2023/10/29 07:15:53;;;;;;;;;;;12.60;99.90;;;;;;5088307;28;20151;-77
2023/10/29 07:18:19;;;;;;;9.55;4.57;;;12.70;99.90;;;;;;5091217;28;19908;-77
2023/10/29 07:20:45;;;;;;;;;;;13.00;99.90;;;;;;5092938;28;20039;-78
2023/10/29 07:23:12;;;;;;;6.63;4.50;;;13.10;99.90;;;;;;5091466;28;19911;-77
2023/10/29 07:25:38;;;;;;;9.75;6.75;;;13.20;99.90;;;;;;5091246;28;20028;-77
2023/10/29 07:28:03;;;;;;;12.90;7.32;;;13.10;99.90;;;;;;5091188;28;20503;-77
2023/10/29 07:30:30;;;;;;;10.48;5.88;;;13.00;99.90;;;;;;5091208;28;20050;-78
2023/10/29 07:32:56;;;;;;;7.85;5.13;;;13.00;99.90;;;;;;5091526;28;20556;-79
2023/10/29 07:35:21;;;;;;;6.88;4.72;;;13.00;99.90;;;;;;5089776;28;20119;-78
2023/10/29 07:37:47;;;;;;;8.02;4.88;;;13.10;99.90;;;;;;5090978;28;20035;-79
2023/10/29 07:40:13;;;;;;;9.45;5.72;;;13.20;99.90;;;;;;5091178;28;20515;-79
2023/10/29 07:42:38;;;;;;;8.45;5.57;;;13.30;99.90;;;;;;5088517;28;20031;-79
2023/10/29 07:45:05;;;;;;;8.85;5.40;;;13.40;99.90;;;;;;5080747;28;20472;-78
2023/10/29 07:47:31;;;;;;;9.48;5.43;;;13.50;99.90;;;;;;5092186;28;20031;-78
2023/10/29 07:49:57;;;;;;;10.43;6.28;;;13.80;99.90;;;;;;5091895;28;20475;-83
2023/10/29 07:52:23;;;;;;;6.45;4.97;;;13.90;99.90;;;;;;5090769;28;20031;-78
2023/10/29 07:54:49;;;;;;;9.57;5.18;;;14.00;99.90;;;;;;5090574;28;20479;-79
2023/10/29 07:57:14;;;;;;;;;;;14.10;99.90;;;;;;5090713;28;20036;-82
2023/10/29 07:59:40;;;;;;;11.10;5.30;;;14.20;99.90;;;;;;5091821;28;19908;-76
2023/10/29 08:02:06;;;;;;;7.63;4.82;;;14.10;99.90;;;;;;5091582;28;20071;-79
2023/10/29 08:04:31;;;;;;;7.65;3.90;;;14.10;99.90;;;;;;5089990;28;20058;-79
2023/10/29 08:06:57;;;;;;;7.47;3.17;;;14.10;99.90;;;;;;5090248;28;20032;-77
2023/10/29 08:09:22;;;;;;;5.50;3.15;;;14.10;99.90;;;;;;5089345;28;20115;-77
2023/10/29 08:11:49;;;;;;;10.15;3.58;;;14.20;99.90;;;;;;5090233;28;20052;-76
2023/10/29 08:14:15;;;;;;;8.55;2.80;;;14.40;99.90;;;;;;5091079;28;20035;-79
2023/10/29 08:16:43;;;;;;;11.77;2.58;;;14.70;99.90;;;;;;5089704;28;20036;-78
2023/10/29 08:19:09;;;;;;;6.72;2.20;;;15.10;99.90;;;;;;5091456;28;20032;-78
2023/10/29 08:21:34;;;;;;;7.10;3.13;;;15.40;99.90;;;;;;5091520;28;20111;-78
2023/10/29 08:24:00;;;;;;;3.90;1.80;;;15.60;99.90;;;;;;5089953;28;20056;-77
2023/10/29 08:26:28;;;;;;;10.48;2.80;;;15.60;99.90;;;;;;5090065;28;20032;-78
2023/10/29 08:28:54;;;;;;;8.10;2.55;;;15.60;99.90;;;;;;5089928;28;20119;-78
2023/10/29 08:31:21;;;;;;;9.45;3.05;;;15.70;99.90;;;;;;5089960;28;20123;-78
2023/10/29 08:33:47;;;;;;;9.05;4.00;;;15.80;99.90;;;;;;5090994;28;20024;-79
2023/10/29 08:36:16;;;;;;;12.05;5.22;;;16.00;99.90;;;;;;5089856;28;20094;-77
2023/10/29 08:38:42;;;;;;;11.27;5.85;;;16.20;99.90;;;;;;5091293;28;20073;-77
2023/10/29 08:41:17;;;;;;;13.00;6.20;;;16.50;99.90;;;;;;5089669;28;20040;-76
2023/10/29 08:43:44;;;;;;;12.00;7.13;;;16.90;99.90;;;;;;5089615;28;20024;-78
2023/10/29 08:46:10;;;;;;;18.10;7.47;;;17.30;99.90;;;;;;5089488;28;20468;-76
2023/10/29 08:48:36;;;;;;;12.50;6.45;;;17.90;99.90;;;;;;5090714;28;20020;-77
2023/10/29 08:51:02;;;;;;;9.80;5.63;;;18.40;99.90;;;;;;5089344;28;20121;-78
2023/10/29 08:53:27;;;;;;;7.68;4.60;;;19.10;99.90;;;;;;5090370;28;20024;-76
2023/10/29 08:55:54;;;;;;;11.95;6.63;;;19.60;99.90;;;;;;5088964;28;20047;-78
2023/10/29 08:58:20;;;;;;;9.43;4.50;;;19.70;99.90;;;;;;5090794;28;20020;-77
2023/10/29 09:00:46;;;;;;;8.20;3.05;;;19.30;99.90;;;;;;5090535;28;20039;-77
2023/10/29 09:03:16;;;;;;;13.05;3.33;;;18.90;99.90;;;;;;5090522;28;20028;-78
2023/10/29 09:05:42;;;;;;;17.45;4.65;;;18.70;99.90;;;;;;5090696;28;20568;-78
2023/10/29 09:08:08;;;;;;;10.02;3.70;;;18.40;99.90;;;;;;5088852;28;20032;-75
2023/10/29 09:10:34;;;;;;;8.30;3.10;;;18.10;99.90;;;;;;5089078;28;20032;-76
2023/10/29 09:12:59;;;;;;;10.25;3.15;;;17.90;99.90;;;;;;5088984;28;20042;-77
2023/10/29 09:15:25;;;;;;;8.65;3.05;;;17.50;99.90;;;;;;5088985;28;20139;-78
2023/10/29 09:17:52;;;;;;;9.38;2.75;;;17.40;99.90;;;;;;5090175;28;20458;-77
2023/10/29 09:20:18;;;;;;;7.07;2.85;;;17.30;99.90;;;;;;5087324;28;20036;-79
2023/10/29 09:22:43;;;;;;;6.50;2.42;;;17.10;99.90;;;;;;5074283;28;20027;-78
2023/10/29 09:25:09;;;;;;;7.50;2.95;;;17.00;99.90;;;;;;5088817;28;20091;-80
2023/10/29 09:27:35;;;;;;;8.45;3.45;;;16.90;99.90;;;;;;5088573;28;20118;-80
2023/10/29 09:30:01;;;;;;;6.72;2.63;;;16.80;99.90;;;;;;5089062;28;20024;-77
2023/10/29 09:32:26;;;;;;;8.68;2.75;;;16.70;99.90;;;;;;5089869;28;20035;-80
2023/10/29 09:34:52;;;;;;;5.53;1.98;;;16.70;99.90;;;;;;5089034;28;20024;-78
2023/10/29 09:37:18;;;;;;;10.40;2.88;;;16.60;99.90;;;;;;5088361;28;20036;-79
2023/10/29 09:39:43;;;;;;;6.65;2.08;;;16.50;99.90;;;;;;5089851;28;20031;-79
2023/10/29 09:42:11;;;;;;;7.28;2.00;;;16.50;99.90;;;;;;5088552;28;20085;-78
2023/10/29 09:44:41;;;;;;;8.13;1.92;;;16.40;99.90;;;;;;5088441;28;20020;-78
2023/10/29 09:47:19;;;;;;;6.65;1.88;;;16.40;99.90;;;;;;5089870;28;20028;-78
2023/10/29 09:49:45;;;;;;;10.57;2.25;;;16.30;99.90;;;;;;5088016;28;20088;-79
2023/10/29 09:52:11;;;;;;;5.28;1.90;;;16.30;99.90;;;;;;5075064;28;20111;-80
2023/10/29 09:54:38;;;;;;;6.50;1.63;;;16.30;99.90;;;;;;5088262;28;20027;-79
2023/10/29 09:57:06;;;;;;;9.05;2.78;;;16.30;99.90;;;;;;5087704;28;20040;-80
2023/10/29 09:59:32;;;;;;;6.10;1.48;;;16.40;99.90;;;;;;5089668;28;20020;-77
2023/10/29 10:01:58;;;;;;;8.30;1.63;;;16.60;99.90;;;;;;5088414;28;20521;-78
2023/10/29 10:04:24;;;;;;;4.00;1.50;;;16.70;99.90;;;;;;5088491;28;20131;-79
2023/10/29 10:06:51;;;;;;;5.97;1.85;;;16.80;99.90;;;;;;5089667;28;20024;-79
2023/10/29 10:09:17;;;;;;;4.22;1.75;;;16.80;99.90;;;;;;5087543;28;20036;-79
2023/10/29 10:11:43;;;;;;;6.22;2.03;;;16.70;99.90;;;;;;5089554;28;20048;-79
2023/10/29 10:14:25;;;;;;;7.53;2.03;;;16.80;99.90;;;;;;5084480;28;20492;-79
2023/10/29 10:17:10;;;;;;;7.07;1.63;;;16.70;99.90;;;;;;5081510;28;20035;-79
2023/10/29 10:19:36;;;;;;;6.15;2.03;;;16.70;99.90;;;;;;5089677;28;20028;-79
2023/10/29 10:22:04;;;;;;;6.45;1.95;;;16.70;99.90;;;;;;5087849;28;20038;-78
2023/10/29 10:24:37;;;;;;;4.95;1.80;;;16.60;99.90;;;;;;5086790;28;20040;-79
2023/10/29 10:27:03;;;;;;;9.43;2.63;;;16.40;99.90;;;;;;5085153;28;20059;-79
2023/10/29 10:29:33;;;;;;;10.65;2.92;;;16.40;99.90;;;;;;5088861;28;20035;-77
2023/10/29 10:32:03;;;;;;;12.48;3.00;;;16.30;99.90;;;;;;5090613;28;20024;-78
2023/10/29 10:34:31;;;;;;;6.40;2.08;;;16.30;99.90;;;;;;5089727;28;20024;-79
2023/10/29 10:37:02;;;;;;;11.45;1.88;;;16.40;99.90;;;;;;5092995;28;20065;-77
2023/10/29 10:39:28;;;;;;;7.35;1.80;;;16.30;99.90;;;;;;5071933;28;20040;-79
2023/10/29 10:41:55;;;;;;;8.25;2.22;;;16.10;99.90;;;;;;5073062;28;20028;-78
2023/10/29 10:44:24;;;;;;;4.65;1.95;;;16.10;99.90;;;;;;5073033;28;20036;-78
2023/10/29 10:46:51;;;;;;;6.90;1.55;;;16.10;99.90;;;;;;5073048;28;20035;-79
2023/10/29 10:49:18;;;;;;;8.30;2.03;;;16.10;99.90;;;;;;5071659;28;20025;-79
2023/10/29 10:51:50;;;;;;;6.55;1.95;;;16.20;99.90;;;;;;5072701;28;20117;-79
2023/10/29 10:54:19;;;;;;;6.30;1.38;;;16.20;99.90;;;;;;5071749;28;20086;-79
2023/10/29 10:56:46;;;;;;;6.60;1.95;;;16.30;99.90;;;;;;5072612;28;20037;-79
2023/10/29 10:59:11;;;;;;;13.55;2.40;;;16.30;99.90;;;;;;5089695;28;20024;-76
2023/10/29 11:01:39;;;;;;;4.78;1.88;;;16.30;99.90;;;;;;5091361;28;20556;-77
2023/10/29 11:04:08;;;;;;;6.20;2.58;;;16.30;99.90;;;;;;5091481;28;20027;-77
2023/10/29 11:06:38;;;;;;;8.45;2.72;;;16.40;99.90;;;;;;5092647;28;20443;-77
2023/10/29 11:09:12;;;;;;;6.40;2.80;;;16.40;99.90;;;;;;5091415;28;20016;-76
2023/10/29 11:11:51;;;;;;;6.85;1.80;;;16.40;99.90;;;;;;5092434;28;20056;-77
2023/10/29 11:14:18;;;;;;;7.25;2.05;;;16.40;99.90;;;;;;5091287;28;20574;-77
2023/10/29 11:16:54;;;;;;;7.70;2.15;;;16.50;99.90;;;;;;5091153;28;20113;-78
2023/10/29 11:19:36;;;;;;;6.72;1.83;;;16.50;99.90;;;;;;5092501;28;20104;-77
2023/10/29 11:22:18;;;;;;;7.88;2.28;;;16.60;99.90;;;;;;5092618;28;20024;-78
2023/10/29 11:25:04;;;;;;;8.95;2.10;;;16.70;99.90;;;;;;5092353;28;20024;-77
2023/10/29 11:27:49;;;;;;;7.32;1.80;;;16.70;99.90;;;;;;5092344;28;20421;-77
2023/10/29 11:30:16;;;;;;;6.20;2.05;;;16.70;99.90;;;;;;5091093;28;20392;-77
2023/10/29 11:32:43;;;;;;;7.18;2.08;;;16.80;99.90;;;;;;5091195;28;20040;-77
2023/10/29 11:35:14;;;;;;;3.85;1.45;;;16.90;99.90;;;;;;5092428;28;20114;-77
2023/10/29 11:37:41;;;;;;;9.73;1.98;;;17.00;99.90;;;;;;5089990;28;20058;-77
2023/10/29 11:40:28;;;;;;;8.98;2.10;;;17.10;99.90;;;;;;5076297;28;20584;-77
2023/10/29 11:42:58;;;;;;;10.68;2.25;;;17.20;99.90;;;;;;5080669;28;20036;-78
2023/10/29 11:45:24;;;;;;;8.88;2.25;;;17.30;99.90;;;;;;5090631;28;20016;-78
2023/10/29 11:48:17;;;;;;;6.05;2.13;;;17.30;99.90;;;;;;5089066;28;20788;-77
2023/10/29 11:51:05;;;;;;;5.82;2.05;;;17.60;99.90;;;;;;5091834;28;20075;-76
2023/10/29 11:53:32;;;;;;;5.47;2.05;;;17.60;99.90;;;;;;5090205;28;20114;-77
2023/10/29 11:56:04;;;;;;;7.38;2.28;;;17.70;99.90;;;;;;5092264;28;20034;-77
2023/10/29 11:58:30;;;;;;;8.50;2.22;;;17.80;99.90;;;;;;5072952;28;20111;-77
2023/10/29 12:00:56;;;;;;;7.78;2.05;;;17.90;99.90;;;;;;5070124;28;20111;-79
2023/10/29 12:03:22;;;;;;;6.70;2.20;;;17.90;99.90;;;;;;5071422;28;20067;-76
2023/10/29 12:05:52;;;;;;;7.35;2.17;;;17.90;99.90;;;;;;5069929;28;20036;-77
2023/10/29 12:08:18;;;;;;;9.52;2.40;;;17.90;99.90;;;;;;5071081;28;20031;-77
2023/10/29 12:10:55;;;;;;;11.00;2.47;;;17.80;99.90;;;;;;5070073;28;20083;-77
2023/10/29 12:13:21;;;;;;;11.10;2.15;;;17.90;99.90;;;;;;5070123;28;20040;-77
2023/10/29 12:15:54;;;;;;;7.57;2.13;;;17.90;99.90;;;;;;5069711;28;20036;-78
2023/10/29 12:18:21;;;;;;;10.27;2.22;;;17.80;99.90;;;;;;5071289;28;20034;-78
2023/10/29 12:20:48;;;;;;;4.00;1.60;;;17.70;99.90;;;;;;5071073;28;20017;-77
2023/10/29 12:23:15;;;;;;;7.38;2.17;;;17.60;99.90;;;;;;5069809;28;20035;-77
2023/10/29 12:25:43;;;;;;;5.22;1.90;;;17.60;99.90;;;;;;5071081;28;20025;-78
2023/10/29 12:28:09;;;;;;;5.70;2.13;;;17.60;99.90;;;;;;5070986;28;20025;-76
2023/10/29 12:30:40;;;;;;;8.32;1.85;;;17.70;99.90;;;;;;5069779;28;20066;-77
2023/10/29 12:33:19;;;;;;;12.85;2.28;;;17.70;99.90;;;;;;5070964;28;20036;-76
2023/10/29 12:35:47;;;;;;;5.22;1.63;;;17.70;99.90;;;;;;5070744;28;20668;-77
2023/10/29 12:38:13;;;;;;;8.73;2.47;;;17.70;99.90;;;;;;5069537;28;20028;-77
2023/10/29 12:41:04;;;;;;;5.22;1.73;;;17.80;99.90;;;;;;5069360;28;20035;-80
2023/10/29 12:43:38;;;;;;;10.63;2.17;;;17.90;99.90;;;;;;5070570;28;20710;-77
2023/10/29 12:46:09;;;;;;;7.15;1.42;;;17.80;99.90;;;;;;5070480;28;20098;-77
2023/10/29 12:48:36;;;;;;;5.65;1.85;;;17.80;99.90;;;;;;5070929;28;20029;-76
2023/10/29 12:51:02;;;;;;;5.20;1.77;;;17.80;99.90;;;;;;5069590;28;20031;-78
2023/10/29 12:53:33;;;;;;;14.70;2.30;;;17.70;99.90;;;;;;5069077;28;20029;-78
2023/10/29 12:56:00;;;;;;;3.65;1.52;;;17.70;99.90;;;;;;5068647;28;20520;-77
2023/10/29 12:58:28;;;;;;;5.50;1.42;;;17.70;99.90;;;;;;5070167;28;20101;-78
2023/10/29 13:00:57;;;;;;;10.02;2.15;;;17.70;99.90;;;;;;5069183;28;20032;-78
2023/10/29 13:03:24;;;;;;;4.70;1.60;;;17.70;99.90;;;;;;5070150;28;20048;-77
2023/10/29 13:05:50;;;;;;;5.13;1.48;;;17.80;99.90;;;;;;5070142;28;20035;-78
2023/10/29 13:08:17;;;;;;;4.53;1.17;;;17.70;99.90;;;;;;5069136;28;20040;-77